KMNI

Santee Cooper Regional Airport

Manning, South Carolina, USA
METAR KMNI 271135Z AUTO 00000KT 7SM CLR 18/18 A3001 RMK AO2
Observed Flight Rules
May-27 @ 11:35 UTC (25 minutes ago) Visual Flight Rules
Visibility Clouds
7 miles
  • Clear skies
Temperatures Readings
Current 18°C / 64°F
Dewpoint 18°C / 64°F
Humidity 100%
Altimeter 30.01" Hg
Pressure 1016 hPa
Elevation 32
METAR KMNI 271135Z AUTO 00000KT 7SM CLR 18/18 A3001 RMK AO2
Observed Flight Rules
May-27 @ 11:35 UTC
(25 minutes ago)
VFR
Clouds
  • Clear skies
Temperature Dewpoint
18°C / 64°F 18°C / 64°F
Humidity Altimeter Pressure
100% 30.01" Hg 1016 hPa